首页
METAR-TAF:

METAR-TAF

机场 :

杰尔, 匈牙利

纬度: 47-37-28N, 经度: 017-48-49E, 海拔: 129米

当前天气观测

该预报发布于34分钟前的10:45 UTC
风速11节,风向北转西北,在西转西北北转东北之间变化
温度 28°C
湿度 58%
气压 1015 hPa
能见度10公里或以上
少量云层高于3300英尺
散云层高于20000英尺

METAR: LHPR 161045Z 34011KT 290V020 9999 FEW033 SCT200 28/19 Q1015

时间: 13:19 (11:19 UTC)

预报

该预报发布于3小时和4分钟前的08:15 UTC
预报有效从16日的 09点(UTC)到 16日的 18点(UTC)
风速9节,风向西转西北
能见度10公里或以上
1500米以下无云,无积雨云
几率 30% :
短暂存在
从 16日的 09点(UTC)到 16日的 14点(UTC)
风速12节,风向多变,有时为30节阵风
散云层高于4000英尺, 积雨云.
雷暴, 雨
短暂存在
从 16日的 14点(UTC)到 16日的 18点(UTC)
风速12节,风向东南,有时为30节阵风
多云层高于3500英尺, 积雨云.
雷暴, 雨
几率 40% :
短暂存在
从 16日的 14点(UTC)到 16日的 18点(UTC)
风速16节,风向多变,有时为40节阵风
雷暴, 雨, 冰雹

TAF: LHPR 160815Z 1609/1618 30009KT CAVOK PROB30 TEMPO 1609/1614 VRB12G30KT TSRA SCT040CB TEMPO 1614/1618 14012G30KT TSRA BKN035CB PROB40 TEMPO 1614/1618 VRB16G40KT TSRAGR

超过4000个机场的气象观测和天气预报(METAR&TAF报告)。

可查询的气象台以黄色和红色小点在地图上表示。

将鼠标移到小点上方,可查看气象台名称。

然后点击查看天气观测和预报。

如需切换地图:点击带黑十字的绿色按钮放大地图;点击带横线的绿色按钮缩小地图;或者点击绿色箭头查看邻近地区的地图。


METAR-TAF: